sensor_id;sensor_type;location;lat;lon;timestamp;temperature;humidity
24645;DHT22;12780;45.502;9.146;2022-10-31T00:00:46;16.30;99.90
24645;DHT22;12780;45.502;9.146;2022-10-31T00:03:11;16.30;99.90
24645;DHT22;12780;45.502;9.146;2022-10-31T00:05:41;16.30;99.90
24645;DHT22;12780;45.502;9.146;2022-10-31T00:08:07;16.30;99.90
24645;DHT22;12780;45.502;9.146;2022-10-31T00:10:33;16.30;99.90
24645;DHT22;12780;45.502;9.146;2022-10-31T00:12:59;16.30;99.90
24645;DHT22;12780;45.502;9.146;2022-10-31T00:15:24;16.30;99.90
24645;DHT22;12780;45.502;9.146;2022-10-31T00:17:50;16.30;99.90
24645;DHT22;12780;45.502;9.146;2022-10-31T00:20:15;16.30;99.90
24645;DHT22;12780;45.502;9.146;2022-10-31T00:22:41;16.20;99.90
24645;DHT22;12780;45.502;9.146;2022-10-31T00:25:06;16.20;99.90
24645;DHT22;12780;45.502;9.146;2022-10-31T00:27:32;16.20;99.90
24645;DHT22;12780;45.502;9.146;2022-10-31T00:29:58;16.10;99.90
24645;DHT22;12780;45.502;9.146;2022-10-31T00:32:23;16.10;99.90
24645;DHT22;12780;45.502;9.146;2022-10-31T00:34:49;16.10;99.90
24645;DHT22;12780;45.502;9.146;2022-10-31T00:37:14;16.10;99.90
24645;DHT22;12780;45.502;9.146;2022-10-31T00:39:40;16.10;99.90
24645;DHT22;12780;45.502;9.146;2022-10-31T00:42:05;16.00;99.90
24645;DHT22;12780;45.502;9.146;2022-10-31T00:44:31;16.00;99.90
24645;DHT22;12780;45.502;9.146;2022-10-31T00:46:56;16.00;99.90
24645;DHT22;12780;45.502;9.146;2022-10-31T00:49:22;15.90;99.90
24645;DHT22;12780;45.502;9.146;2022-10-31T00:51:47;15.90;99.90
24645;DHT22;12780;45.502;9.146;2022-10-31T00:54:13;16.00;99.90
24645;DHT22;12780;45.502;9.146;2022-10-31T00:56:38;15.90;99.90
24645;DHT22;12780;45.502;9.146;2022-10-31T00:59:04;15.90;99.90
24645;DHT22;12780;45.502;9.146;2022-10-31T01:01:30;15.90;99.90
24645;DHT22;12780;45.502;9.146;2022-10-31T01:03:55;15.80;99.90
24645;DHT22;12780;45.502;9.146;2022-10-31T01:06:21;15.90;99.90
24645;DHT22;12780;45.502;9.146;2022-10-31T01:08:47;16.00;99.90
24645;DHT22;12780;45.502;9.146;2022-10-31T01:11:16;15.80;99.90
24645;DHT22;12780;45.502;9.146;2022-10-31T01:13:42;15.80;99.90
24645;DHT22;12780;45.502;9.146;2022-10-31T01:16:11;15.80;99.90
24645;DHT22;12780;45.502;9.146;2022-10-31T01:18:37;15.80;99.90
24645;DHT22;12780;45.502;9.146;2022-10-31T01:21:08;15.70;99.90
24645;DHT22;12780;45.502;9.146;2022-10-31T01:23:34;15.80;99.90
24645;DHT22;12780;45.502;9.146;2022-10-31T01:26:07;15.80;99.90
24645;DHT22;12780;45.502;9.146;2022-10-31T01:28:39;15.70;99.90
24645;DHT22;12780;45.502;9.146;2022-10-31T01:31:08;15.70;99.90
24645;DHT22;12780;45.502;9.146;2022-10-31T01:33:35;15.70;99.90
24645;DHT22;12780;45.502;9.146;2022-10-31T01:36:01;15.70;99.90
24645;DHT22;12780;45.502;9.146;2022-10-31T01:38:36;15.70;99.90
24645;DHT22;12780;45.502;9.146;2022-10-31T01:41:01;15.60;99.90
24645;DHT22;12780;45.502;9.146;2022-10-31T01:43:50;15.80;99.90
24645;DHT22;12780;45.502;9.146;2022-10-31T01:46:20;15.60;99.90
24645;DHT22;12780;45.502;9.146;2022-10-31T01:48:47;15.60;99.90
24645;DHT22;12780;45.502;9.146;2022-10-31T01:51:14;15.60;99.90
24645;DHT22;12780;45.502;9.146;2022-10-31T01:53:42;15.60;99.90
24645;DHT22;12780;45.502;9.146;2022-10-31T01:56:10;15.60;99.90
24645;DHT22;12780;45.502;9.146;2022-10-31T01:58:37;15.60;99.90
24645;DHT22;12780;45.502;9.146;2022-10-31T02:01:03;15.60;99.90
24645;DHT22;12780;45.502;9.146;2022-10-31T02:03:29;15.60;99.90
24645;DHT22;12780;45.502;9.146;2022-10-31T02:05:56;15.60;99.90
24645;DHT22;12780;45.502;9.146;2022-10-31T02:08:30;15.60;99.90
24645;DHT22;12780;45.502;9.146;2022-10-31T02:10:57;15.60;99.90
24645;DHT22;12780;45.502;9.146;2022-10-31T02:13:24;15.50;99.90
24645;DHT22;12780;45.502;9.146;2022-10-31T02:15:53;15.60;99.90
24645;DHT22;12780;45.502;9.146;2022-10-31T02:18:19;15.60;99.90
24645;DHT22;12780;45.502;9.146;2022-10-31T02:29:36;15.50;99.90
24645;DHT22;12780;45.502;9.146;2022-10-31T02:32:20;15.50;99.90
24645;DHT22;12780;45.502;9.146;2022-10-31T02:40:17;15.50;99.90
24645;DHT22;12780;45.502;9.146;2022-10-31T02:43:02;15.50;99.90
24645;DHT22;12780;45.502;9.146;2022-10-31T02:45:35;15.50;99.90
24645;DHT22;12780;45.502;9.146;2022-10-31T02:48:09;15.50;99.90
24645;DHT22;12780;45.502;9.146;2022-10-31T02:50:39;15.40;99.90
24645;DHT22;12780;45.502;9.146;2022-10-31T02:53:06;15.50;99.90
24645;DHT22;12780;45.502;9.146;2022-10-31T02:58:10;15.50;99.90
24645;DHT22;12780;45.502;9.146;2022-10-31T03:03:50;15.50;99.90
24645;DHT22;12780;45.502;9.146;2022-10-31T03:06:41;15.50;99.90
24645;DHT22;12780;45.502;9.146;2022-10-31T03:11:58;15.50;99.90
24645;DHT22;12780;45.502;9.146;2022-10-31T03:14:39;15.50;99.90
24645;DHT22;12780;45.502;9.146;2022-10-31T03:17:07;15.50;99.90
24645;DHT22;12780;45.502;9.146;2022-10-31T03:19:39;15.60;99.90
24645;DHT22;12780;45.502;9.146;2022-10-31T03:22:21;15.50;99.90
24645;DHT22;12780;45.502;9.146;2022-10-31T03:24:48;15.50;99.90
24645;DHT22;12780;45.502;9.146;2022-10-31T03:27:20;15.60;99.90
24645;DHT22;12780;45.502;9.146;2022-10-31T03:29:49;15.50;99.90
24645;DHT22;12780;45.502;9.146;2022-10-31T03:32:19;15.50;99.90
24645;DHT22;12780;45.502;9.146;2022-10-31T03:34:49;15.50;99.90
24645;DHT22;12780;45.502;9.146;2022-10-31T03:37:18;15.50;99.90
24645;DHT22;12780;45.502;9.146;2022-10-31T03:39:45;15.50;99.90
24645;DHT22;12780;45.502;9.146;2022-10-31T03:42:15;15.50;99.90
24645;DHT22;12780;45.502;9.146;2022-10-31T03:44:49;15.60;99.90
24645;DHT22;12780;45.502;9.146;2022-10-31T03:47:16;15.40;99.90
24645;DHT22;12780;45.502;9.146;2022-10-31T03:49:42;15.40;99.90
24645;DHT22;12780;45.502;9.146;2022-10-31T03:54:42;15.40;99.90
24645;DHT22;12780;45.502;9.146;2022-10-31T03:57:27;15.50;99.90
24645;DHT22;12780;45.502;9.146;2022-10-31T04:00:06;15.40;99.90
24645;DHT22;12780;45.502;9.146;2022-10-31T04:02:35;15.40;99.90
24645;DHT22;12780;45.502;9.146;2022-10-31T04:05:05;15.40;99.90
24645;DHT22;12780;45.502;9.146;2022-10-31T04:07:35;15.40;99.90
24645;DHT22;12780;45.502;9.146;2022-10-31T04:10:05;15.40;99.90
24645;DHT22;12780;45.502;9.146;2022-10-31T04:12:34;15.40;99.90
24645;DHT22;12780;45.502;9.146;2022-10-31T04:15:03;15.40;99.90
24645;DHT22;12780;45.502;9.146;2022-10-31T04:17:33;15.40;99.90
24645;DHT22;12780;45.502;9.146;2022-10-31T04:20:00;15.40;99.90
24645;DHT22;12780;45.502;9.146;2022-10-31T04:22:26;15.50;99.90
24645;DHT22;12780;45.502;9.146;2022-10-31T04:24:52;15.50;99.90
24645;DHT22;12780;45.502;9.146;2022-10-31T04:27:17;15.40;99.90
24645;DHT22;12780;45.502;9.146;2022-10-31T04:29:43;15.30;99.90
24645;DHT22;12780;45.502;9.146;2022-10-31T04:32:08;15.40;99.90
24645;DHT22;12780;45.502;9.146;2022-10-31T04:34:34;15.30;99.90
24645;DHT22;12780;45.502;9.146;2022-10-31T04:37:00;15.40;99.90
24645;DHT22;12780;45.502;9.146;2022-10-31T04:39:25;15.40;99.90
24645;DHT22;12780;45.502;9.146;2022-10-31T04:41:51;15.30;99.90
24645;DHT22;12780;45.502;9.146;2022-10-31T04:44:16;15.40;99.90
24645;DHT22;12780;45.502;9.146;2022-10-31T04:46:42;15.30;99.90
24645;DHT22;12780;45.502;9.146;2022-10-31T04:49:07;15.30;99.90
24645;DHT22;12780;45.502;9.146;2022-10-31T04:51:33;15.30;99.90
24645;DHT22;12780;45.502;9.146;2022-10-31T04:53:58;15.20;99.90
24645;DHT22;12780;45.502;9.146;2022-10-31T04:56:24;15.30;99.90
24645;DHT22;12780;45.502;9.146;2022-10-31T04:58:50;15.30;99.90
24645;DHT22;12780;45.502;9.146;2022-10-31T05:01:16;15.30;99.90
24645;DHT22;12780;45.502;9.146;2022-10-31T05:03:41;15.20;99.90
24645;DHT22;12780;45.502;9.146;2022-10-31T05:06:07;15.20;99.90
24645;DHT22;12780;45.502;9.146;2022-10-31T05:08:33;15.30;99.90
24645;DHT22;12780;45.502;9.146;2022-10-31T05:11:03;15.30;99.90
24645;DHT22;12780;45.502;9.146;2022-10-31T05:13:29;15.20;99.90
24645;DHT22;12780;45.502;9.146;2022-10-31T05:15:55;15.20;99.90
24645;DHT22;12780;45.502;9.146;2022-10-31T05:18:20;15.20;99.90
24645;DHT22;12780;45.502;9.146;2022-10-31T05:20:46;15.20;99.90
24645;DHT22;12780;45.502;9.146;2022-10-31T05:23:12;15.20;99.90
24645;DHT22;12780;45.502;9.146;2022-10-31T05:25:39;15.20;99.90
24645;DHT22;12780;45.502;9.146;2022-10-31T05:28:05;15.20;99.90
24645;DHT22;12780;45.502;9.146;2022-10-31T05:30:31;15.20;99.90
24645;DHT22;12780;45.502;9.146;2022-10-31T05:32:57;15.20;99.90
24645;DHT22;12780;45.502;9.146;2022-10-31T05:35:26;15.20;99.90
24645;DHT22;12780;45.502;9.146;2022-10-31T05:37:52;15.10;99.90
24645;DHT22;12780;45.502;9.146;2022-10-31T05:40:19;15.20;99.90
24645;DHT22;12780;45.502;9.146;2022-10-31T05:42:45;15.10;99.90
24645;DHT22;12780;45.502;9.146;2022-10-31T05:45:14;15.20;99.90
24645;DHT22;12780;45.502;9.146;2022-10-31T05:47:39;15.20;99.90
24645;DHT22;12780;45.502;9.146;2022-10-31T05:50:06;15.20;99.90
24645;DHT22;12780;45.502;9.146;2022-10-31T05:52:32;15.10;99.90
24645;DHT22;12780;45.502;9.146;2022-10-31T05:54:58;15.20;99.90
24645;DHT22;12780;45.502;9.146;2022-10-31T05:57:23;15.10;99.90
24645;DHT22;12780;45.502;9.146;2022-10-31T05:59:49;15.10;99.90
24645;DHT22;12780;45.502;9.146;2022-10-31T06:02:18;15.10;99.90
24645;DHT22;12780;45.502;9.146;2022-10-31T06:04:44;15.10;99.90
24645;DHT22;12780;45.502;9.146;2022-10-31T06:07:09;15.10;99.90
24645;DHT22;12780;45.502;9.146;2022-10-31T06:09:35;15.10;99.90
24645;DHT22;12780;45.502;9.146;2022-10-31T06:12:00;15.00;99.90
24645;DHT22;12780;45.502;9.146;2022-10-31T06:14:26;15.00;99.90
24645;DHT22;12780;45.502;9.146;2022-10-31T06:16:51;15.00;99.90
24645;DHT22;12780;45.502;9.146;2022-10-31T06:19:17;15.10;99.90
24645;DHT22;12780;45.502;9.146;2022-10-31T06:21:43;15.00;99.90
24645;DHT22;12780;45.502;9.146;2022-10-31T06:24:08;15.10;99.90
24645;DHT22;12780;45.502;9.146;2022-10-31T06:26:34;15.10;99.90
24645;DHT22;12780;45.502;9.146;2022-10-31T06:28:59;15.10;99.90
24645;DHT22;12780;45.502;9.146;2022-10-31T06:31:25;15.10;99.90
24645;DHT22;12780;45.502;9.146;2022-10-31T06:33:50;15.20;99.90
24645;DHT22;12780;45.502;9.146;2022-10-31T06:36:16;15.10;99.90
24645;DHT22;12780;45.502;9.146;2022-10-31T06:38:41;15.20;99.90
24645;DHT22;12780;45.502;9.146;2022-10-31T06:41:07;15.20;99.90
24645;DHT22;12780;45.502;9.146;2022-10-31T06:43:32;15.20;99.90
24645;DHT22;12780;45.502;9.146;2022-10-31T06:46:02;15.30;99.90
24645;DHT22;12780;45.502;9.146;2022-10-31T06:48:28;15.30;99.90
24645;DHT22;12780;45.502;9.146;2022-10-31T06:51:00;15.20;99.90
24645;DHT22;12780;45.502;9.146;2022-10-31T06:53:26;15.30;99.90
24645;DHT22;12780;45.502;9.146;2022-10-31T06:55:52;15.50;99.90
24645;DHT22;12780;45.502;9.146;2022-10-31T06:58:17;15.50;99.90
24645;DHT22;12780;45.502;9.146;2022-10-31T07:00:43;15.40;99.90
24645;DHT22;12780;45.502;9.146;2022-10-31T07:03:13;15.40;99.90
24645;DHT22;12780;45.502;9.146;2022-10-31T07:05:39;15.60;99.90
24645;DHT22;12780;45.502;9.146;2022-10-31T07:08:07;15.50;99.90
24645;DHT22;12780;45.502;9.146;2022-10-31T07:10:35;15.60;99.90
24645;DHT22;12780;45.502;9.146;2022-10-31T07:13:03;15.70;99.90
24645;DHT22;12780;45.502;9.146;2022-10-31T07:15:32;15.70;99.90
24645;DHT22;12780;45.502;9.146;2022-10-31T07:18:03;15.80;99.90
24645;DHT22;12780;45.502;9.146;2022-10-31T07:20:30;15.80;99.90
24645;DHT22;12780;45.502;9.146;2022-10-31T07:22:56;16.00;99.90
24645;DHT22;12780;45.502;9.146;2022-10-31T07:25:22;16.00;99.90
24645;DHT22;12780;45.502;9.146;2022-10-31T07:27:48;16.20;99.90
24645;DHT22;12780;45.502;9.146;2022-10-31T07:30:15;16.30;99.90
24645;DHT22;12780;45.502;9.146;2022-10-31T07:32:51;16.30;99.90
24645;DHT22;12780;45.502;9.146;2022-10-31T07:35:19;16.40;99.90
24645;DHT22;12780;45.502;9.146;2022-10-31T07:37:45;16.50;99.90
24645;DHT22;12780;45.502;9.146;2022-10-31T07:40:11;16.60;99.90
24645;DHT22;12780;45.502;9.146;2022-10-31T07:42:40;16.60;99.90
24645;DHT22;12780;45.502;9.146;2022-10-31T07:45:08;16.70;99.90
24645;DHT22;12780;45.502;9.146;2022-10-31T07:47:44;16.70;99.90
24645;DHT22;12780;45.502;9.146;2022-10-31T07:50:12;16.80;99.90
24645;DHT22;12780;45.502;9.146;2022-10-31T07:52:38;16.80;99.90
24645;DHT22;12780;45.502;9.146;2022-10-31T07:55:04;16.90;99.90
24645;DHT22;12780;45.502;9.146;2022-10-31T07:57:30;17.00;99.90
24645;DHT22;12780;45.502;9.146;2022-10-31T07:59:56;17.00;99.90
24645;DHT22;12780;45.502;9.146;2022-10-31T08:02:22;17.10;99.90
24645;DHT22;12780;45.502;9.146;2022-10-31T08:04:48;17.20;99.90
24645;DHT22;12780;45.502;9.146;2022-10-31T08:07:14;17.20;99.90
24645;DHT22;12780;45.502;9.146;2022-10-31T08:09:40;17.30;99.90
24645;DHT22;12780;45.502;9.146;2022-10-31T08:12:05;17.30;99.90
24645;DHT22;12780;45.502;9.146;2022-10-31T08:14:31;17.30;99.90
24645;DHT22;12780;45.502;9.146;2022-10-31T08:16:57;17.30;99.90
24645;DHT22;12780;45.502;9.146;2022-10-31T08:19:22;17.40;99.90
24645;DHT22;12780;45.502;9.146;2022-10-31T08:21:51;17.40;99.90
24645;DHT22;12780;45.502;9.146;2022-10-31T08:24:17;17.60;99.90
24645;DHT22;12780;45.502;9.146;2022-10-31T08:26:43;17.60;99.90
24645;DHT22;12780;45.502;9.146;2022-10-31T08:29:08;17.60;99.90
24645;DHT22;12780;45.502;9.146;2022-10-31T08:31:34;17.70;99.90
24645;DHT22;12780;45.502;9.146;2022-10-31T08:34:00;17.70;99.90
24645;DHT22;12780;45.502;9.146;2022-10-31T08:36:27;17.90;99.90
24645;DHT22;12780;45.502;9.146;2022-10-31T08:38:52;17.90;99.90
24645;DHT22;12780;45.502;9.146;2022-10-31T08:41:18;17.90;99.90
24645;DHT22;12780;45.502;9.146;2022-10-31T08:43:44;17.90;99.90
24645;DHT22;12780;45.502;9.146;2022-10-31T08:46:09;17.90;99.90
24645;DHT22;12780;45.502;9.146;2022-10-31T08:48:35;17.80;99.90
24645;DHT22;12780;45.502;9.146;2022-10-31T08:51:01;18.00;99.90
24645;DHT22;12780;45.502;9.146;2022-10-31T08:53:26;18.00;99.90
24645;DHT22;12780;45.502;9.146;2022-10-31T08:55:55;18.00;99.90
24645;DHT22;12780;45.502;9.146;2022-10-31T08:58:21;17.90;99.90
24645;DHT22;12780;45.502;9.146;2022-10-31T09:00:49;17.90;99.90
24645;DHT22;12780;45.502;9.146;2022-10-31T09:03:19;17.90;99.90
24645;DHT22;12780;45.502;9.146;2022-10-31T09:05:45;18.00;99.90
24645;DHT22;12780;45.502;9.146;2022-10-31T09:08:12;18.20;99.90
24645;DHT22;12780;45.502;9.146;2022-10-31T09:10:38;18.30;99.90
24645;DHT22;12780;45.502;9.146;2022-10-31T09:13:09;18.30;99.90
24645;DHT22;12780;45.502;9.146;2022-10-31T09:15:37;18.40;99.90
24645;DHT22;12780;45.502;9.146;2022-10-31T09:18:04;18.50;99.90
24645;DHT22;12780;45.502;9.146;2022-10-31T09:20:31;18.60;99.90
24645;DHT22;12780;45.502;9.146;2022-10-31T09:22:58;18.70;99.90
24645;DHT22;12780;45.502;9.146;2022-10-31T09:25:25;18.80;99.90
24645;DHT22;12780;45.502;9.146;2022-10-31T09:27:51;18.90;99.90
24645;DHT22;12780;45.502;9.146;2022-10-31T09:30:16;18.90;99.90
24645;DHT22;12780;45.502;9.146;2022-10-31T09:32:42;19.00;99.90
24645;DHT22;12780;45.502;9.146;2022-10-31T09:35:08;19.10;99.90
24645;DHT22;12780;45.502;9.146;2022-10-31T09:37:33;19.10;99.90
24645;DHT22;12780;45.502;9.146;2022-10-31T09:39:59;19.20;99.90
24645;DHT22;12780;45.502;9.146;2022-10-31T09:42:54;19.20;99.90
24645;DHT22;12780;45.502;9.146;2022-10-31T09:45:31;19.30;99.90
24645;DHT22;12780;45.502;9.146;2022-10-31T09:48:07;19.40;99.90
24645;DHT22;12780;45.502;9.146;2022-10-31T09:50:44;19.40;99.90
24645;DHT22;12780;45.502;9.146;2022-10-31T09:55:49;19.50;99.90
24645;DHT22;12780;45.502;9.146;2022-10-31T09:58:27;19.30;99.90
24645;DHT22;12780;45.502;9.146;2022-10-31T10:01:00;19.50;99.90
24645;DHT22;12780;45.502;9.146;2022-10-31T10:03:45;19.50;99.90
24645;DHT22;12780;45.502;9.146;2022-10-31T10:06:21;19.60;99.90
24645;DHT22;12780;45.502;9.146;2022-10-31T10:08:47;19.60;99.90
24645;DHT22;12780;45.502;9.146;2022-10-31T10:11:46;19.60;99.90
24645;DHT22;12780;45.502;9.146;2022-10-31T10:25:22;19.90;99.90
24645;DHT22;12780;45.502;9.146;2022-10-31T10:28:12;20.00;99.90
24645;DHT22;12780;45.502;9.146;2022-10-31T10:30:42;20.00;99.90
24645;DHT22;12780;45.502;9.146;2022-10-31T10:33:22;20.10;99.90
24645;DHT22;12780;45.502;9.146;2022-10-31T10:38:57;20.30;99.90
24645;DHT22;12780;45.502;9.146;2022-10-31T10:41:28;20.40;99.90
24645;DHT22;12780;45.502;9.146;2022-10-31T10:43:55;20.40;99.90
24645;DHT22;12780;45.502;9.146;2022-10-31T10:46:43;20.50;99.90
24645;DHT22;12780;45.502;9.146;2022-10-31T10:54:41;20.80;99.90
24645;DHT22;12780;45.502;9.146;2022-10-31T10:57:27;20.80;99.90
24645;DHT22;12780;45.502;9.146;2022-10-31T10:59:55;20.90;99.90
24645;DHT22;12780;45.502;9.146;2022-10-31T11:02:31;20.90;99.90
24645;DHT22;12780;45.502;9.146;2022-10-31T11:04:58;21.00;99.90
24645;DHT22;12780;45.502;9.146;2022-10-31T11:07:25;21.00;99.90
24645;DHT22;12780;45.502;9.146;2022-10-31T11:10:04;21.10;99.90
24645;DHT22;12780;45.502;9.146;2022-10-31T11:12:32;21.20;99.90
24645;DHT22;12780;45.502;9.146;2022-10-31T11:15:02;21.20;99.90
24645;DHT22;12780;45.502;9.146;2022-10-31T11:17:35;21.30;99.90
24645;DHT22;12780;45.502;9.146;2022-10-31T11:20:05;21.40;99.90
24645;DHT22;12780;45.502;9.146;2022-10-31T11:22:31;21.40;99.90
24645;DHT22;12780;45.502;9.146;2022-10-31T11:24:57;21.40;99.90
24645;DHT22;12780;45.502;9.146;2022-10-31T11:27:24;21.40;99.90
24645;DHT22;12780;45.502;9.146;2022-10-31T11:29:51;21.40;99.90
24645;DHT22;12780;45.502;9.146;2022-10-31T11:32:20;21.40;99.90
24645;DHT22;12780;45.502;9.146;2022-10-31T11:34:49;21.40;99.90
24645;DHT22;12780;45.502;9.146;2022-10-31T11:37:21;21.40;99.90
24645;DHT22;12780;45.502;9.146;2022-10-31T11:40:15;21.50;99.90
24645;DHT22;12780;45.502;9.146;2022-10-31T11:42:42;21.50;99.90
24645;DHT22;12780;45.502;9.146;2022-10-31T11:45:17;21.60;99.90
24645;DHT22;12780;45.502;9.146;2022-10-31T11:47:50;21.60;99.90
24645;DHT22;12780;45.502;9.146;2022-10-31T11:50:23;21.80;99.90
24645;DHT22;12780;45.502;9.146;2022-10-31T11:52:51;21.90;99.90
24645;DHT22;12780;45.502;9.146;2022-10-31T11:55:31;22.00;99.90
24645;DHT22;12780;45.502;9.146;2022-10-31T11:57:57;22.00;99.90
24645;DHT22;12780;45.502;9.146;2022-10-31T12:02:48;22.00;99.90
24645;DHT22;12780;45.502;9.146;2022-10-31T12:05:25;22.00;99.90
24645;DHT22;12780;45.502;9.146;2022-10-31T12:07:52;22.10;99.90
24645;DHT22;12780;45.502;9.146;2022-10-31T12:10:22;22.10;99.90
24645;DHT22;12780;45.502;9.146;2022-10-31T12:21:02;22.10;99.90
24645;DHT22;12780;45.502;9.146;2022-10-31T12:42:19;21.80;99.90
24645;DHT22;12780;45.502;9.146;2022-10-31T12:45:46;21.80;99.90
24645;DHT22;12780;45.502;9.146;2022-10-31T12:59:20;21.60;99.90
24645;DHT22;12780;45.502;9.146;2022-10-31T13:02:09;21.60;99.90
24645;DHT22;12780;45.502;9.146;2022-10-31T13:04:58;21.50;99.90
24645;DHT22;12780;45.502;9.146;2022-10-31T13:07:41;21.50;99.90
24645;DHT22;12780;45.502;9.146;2022-10-31T13:10:26;21.60;99.90
24645;DHT22;12780;45.502;9.146;2022-10-31T13:13:00;21.50;99.90
24645;DHT22;12780;45.502;9.146;2022-10-31T13:15:32;21.60;99.90
24645;DHT22;12780;45.502;9.146;2022-10-31T13:18:05;21.60;99.90
24645;DHT22;12780;45.502;9.146;2022-10-31T13:20:38;21.60;99.90
24645;DHT22;12780;45.502;9.146;2022-10-31T13:23:19;21.60;99.90
24645;DHT22;12780;45.502;9.146;2022-10-31T13:25:49;21.60;99.90
24645;DHT22;12780;45.502;9.146;2022-10-31T13:28:59;21.60;99.90
24645;DHT22;12780;45.502;9.146;2022-10-31T13:31:16;21.60;99.90
24645;DHT22;12780;45.502;9.146;2022-10-31T13:36:21;21.70;99.90
24645;DHT22;12780;45.502;9.146;2022-10-31T13:44:26;21.70;99.90
24645;DHT22;12780;45.502;9.146;2022-10-31T13:46:56;21.70;99.90
24645;DHT22;12780;45.502;9.146;2022-10-31T13:49:35;21.70;99.90
24645;DHT22;12780;45.502;9.146;2022-10-31T13:54:37;21.70;99.90
24645;DHT22;12780;45.502;9.146;2022-10-31T13:57:13;21.70;99.90
24645;DHT22;12780;45.502;9.146;2022-10-31T14:00:06;21.80;99.90
24645;DHT22;12780;45.502;9.146;2022-10-31T14:02:36;21.80;99.90
24645;DHT22;12780;45.502;9.146;2022-10-31T14:05:21;21.80;99.90
24645;DHT22;12780;45.502;9.146;2022-10-31T14:07:47;21.80;99.90
24645;DHT22;12780;45.502;9.146;2022-10-31T14:10:21;21.80;99.90
24645;DHT22;12780;45.502;9.146;2022-10-31T14:12:48;21.80;99.90
24645;DHT22;12780;45.502;9.146;2022-10-31T14:15:17;21.80;99.90
24645;DHT22;12780;45.502;9.146;2022-10-31T14:20:22;21.70;99.90
24645;DHT22;12780;45.502;9.146;2022-10-31T14:22:49;21.70;99.90
24645;DHT22;12780;45.502;9.146;2022-10-31T14:25:28;21.60;99.90
24645;DHT22;12780;45.502;9.146;2022-10-31T14:27:55;21.60;99.90
24645;DHT22;12780;45.502;9.146;2022-10-31T14:30:24;21.60;99.90
24645;DHT22;12780;45.502;9.146;2022-10-31T14:32:53;21.60;99.90
24645;DHT22;12780;45.502;9.146;2022-10-31T14:35:21;21.50;99.90
24645;DHT22;12780;45.502;9.146;2022-10-31T14:38:01;21.50;99.90
24645;DHT22;12780;45.502;9.146;2022-10-31T14:41:04;21.30;99.90
24645;DHT22;12780;45.502;9.146;2022-10-31T14:51:50;21.20;99.90
24645;DHT22;12780;45.502;9.146;2022-10-31T14:54:30;21.10;99.90
24645;DHT22;12780;45.502;9.146;2022-10-31T14:57:05;21.10;99.90
24645;DHT22;12780;45.502;9.146;2022-10-31T14:59:36;21.10;99.90
24645;DHT22;12780;45.502;9.146;2022-10-31T15:02:20;21.10;99.90
24645;DHT22;12780;45.502;9.146;2022-10-31T15:04:47;21.10;99.90
24645;DHT22;12780;45.502;9.146;2022-10-31T15:07:26;21.20;99.90
24645;DHT22;12780;45.502;9.146;2022-10-31T15:10:32;21.20;99.90
24645;DHT22;12780;45.502;9.146;2022-10-31T15:12:51;21.20;99.90
24645;DHT22;12780;45.502;9.146;2022-10-31T15:15:25;21.10;99.90
24645;DHT22;12780;45.502;9.146;2022-10-31T15:17:56;21.20;99.90
24645;DHT22;12780;45.502;9.146;2022-10-31T15:20:28;21.20;99.90
24645;DHT22;12780;45.502;9.146;2022-10-31T15:22:58;21.20;99.90
24645;DHT22;12780;45.502;9.146;2022-10-31T15:25:27;21.20;99.90
24645;DHT22;12780;45.502;9.146;2022-10-31T15:27:53;21.10;99.90
24645;DHT22;12780;45.502;9.146;2022-10-31T15:30:21;21.00;99.90
24645;DHT22;12780;45.502;9.146;2022-10-31T15:32:48;21.00;99.90
24645;DHT22;12780;45.502;9.146;2022-10-31T15:35:23;21.00;99.90
24645;DHT22;12780;45.502;9.146;2022-10-31T15:37:49;20.90;99.90
24645;DHT22;12780;45.502;9.146;2022-10-31T15:40:17;20.80;99.90
24645;DHT22;12780;45.502;9.146;2022-10-31T15:42:49;20.70;99.90
24645;DHT22;12780;45.502;9.146;2022-10-31T15:45:19;20.70;99.90
24645;DHT22;12780;45.502;9.146;2022-10-31T15:47:56;20.50;99.90
24645;DHT22;12780;45.502;9.146;2022-10-31T15:50:28;20.40;99.90
24645;DHT22;12780;45.502;9.146;2022-10-31T15:52:55;20.30;99.90
24645;DHT22;12780;45.502;9.146;2022-10-31T15:55:24;20.30;99.90
24645;DHT22;12780;45.502;9.146;2022-10-31T15:58:03;20.30;99.90
24645;DHT22;12780;45.502;9.146;2022-10-31T16:00:37;20.10;99.90
24645;DHT22;12780;45.502;9.146;2022-10-31T16:03:06;20.00;99.90
24645;DHT22;12780;45.502;9.146;2022-10-31T16:05:53;19.90;99.90
24645;DHT22;12780;45.502;9.146;2022-10-31T16:10:58;19.80;99.90
24645;DHT22;12780;45.502;9.146;2022-10-31T16:13:30;19.70;99.90
24645;DHT22;12780;45.502;9.146;2022-10-31T16:16:03;19.70;99.90
24645;DHT22;12780;45.502;9.146;2022-10-31T16:18:30;19.60;99.90
24645;DHT22;12780;45.502;9.146;2022-10-31T16:21:00;19.60;99.90
24645;DHT22;12780;45.502;9.146;2022-10-31T16:23:27;19.50;99.90
24645;DHT22;12780;45.502;9.146;2022-10-31T16:25:53;19.50;99.90
24645;DHT22;12780;45.502;9.146;2022-10-31T16:28:24;19.40;99.90
24645;DHT22;12780;45.502;9.146;2022-10-31T16:30:54;19.40;99.90
24645;DHT22;12780;45.502;9.146;2022-10-31T16:33:36;19.30;99.90
24645;DHT22;12780;45.502;9.146;2022-10-31T16:38:53;19.10;99.90
24645;DHT22;12780;45.502;9.146;2022-10-31T16:41:19;19.10;99.90
24645;DHT22;12780;45.502;9.146;2022-10-31T16:43:44;19.10;99.90
24645;DHT22;12780;45.502;9.146;2022-10-31T16:46:15;19.00;99.90
24645;DHT22;12780;45.502;9.146;2022-10-31T16:48:42;19.00;99.90
24645;DHT22;12780;45.502;9.146;2022-10-31T16:51:08;18.90;99.90
24645;DHT22;12780;45.502;9.146;2022-10-31T16:53:33;19.00;99.90
24645;DHT22;12780;45.502;9.146;2022-10-31T16:56:02;18.90;99.90
24645;DHT22;12780;45.502;9.146;2022-10-31T16:58:32;18.80;99.90
24645;DHT22;12780;45.502;9.146;2022-10-31T17:01:01;18.80;99.90
24645;DHT22;12780;45.502;9.146;2022-10-31T17:03:27;18.80;99.90
24645;DHT22;12780;45.502;9.146;2022-10-31T17:05:52;18.80;99.90
24645;DHT22;12780;45.502;9.146;2022-10-31T17:08:20;18.70;99.90
24645;DHT22;12780;45.502;9.146;2022-10-31T17:10:47;18.70;99.90
24645;DHT22;12780;45.502;9.146;2022-10-31T17:13:26;18.70;99.90
24645;DHT22;12780;45.502;9.146;2022-10-31T17:15:55;18.50;99.90
24645;DHT22;12780;45.502;9.146;2022-10-31T17:18:21;18.60;99.90
24645;DHT22;12780;45.502;9.146;2022-10-31T17:20:47;18.60;99.90
24645;DHT22;12780;45.502;9.146;2022-10-31T17:23:14;18.60;99.90
24645;DHT22;12780;45.502;9.146;2022-10-31T17:25:41;18.50;99.90
24645;DHT22;12780;45.502;9.146;2022-10-31T17:28:13;18.50;99.90
24645;DHT22;12780;45.502;9.146;2022-10-31T17:30:40;18.50;99.90
24645;DHT22;12780;45.502;9.146;2022-10-31T17:33:07;18.50;99.90
24645;DHT22;12780;45.502;9.146;2022-10-31T17:35:35;18.50;99.90
24645;DHT22;12780;45.502;9.146;2022-10-31T17:38:01;18.40;99.90
24645;DHT22;12780;45.502;9.146;2022-10-31T17:40:26;18.30;99.90